Terminal Aerodrome Forecast
Issued by NWS Louisville, KY

Home | Current Version | Previous Version | Text Only | Print | Product List | Glossary On
Versions: 1 2 3 4 5 6 7 8 9 10 11 12
633
FTUS43 KLMK 222320
TAFSDF
TAF
KSDF 222320Z 2300/2406 06009KT P6SM BKN060 OVC100
     FM230700 08010KT 6SM -RA OVC060 WS020/11035KT
     FM231100 09013G20KT 6SM -RA BKN025
     FM231400 10013G20KT 6SM -RA OVC016=

USA.gov is the U.S. government's official web portal to all federal, state and local government web resources and services.